Home   Weather   India   Chittorgarh   Past weeks
Flag for India

Past Weather in Chittorgarh, Rajasthan, India — Yesterday and Last 2 Weeks

Currently: 93 °F. Passing clouds. (Weather station: Jaipur / Sanganer, India). See more current weather

Past Weather in Chittorgarh — Graph

°F

Chittorgarh Temperature Yesterday

Maximum temperature yesterday: 111 °F (at 2:00 pm)
Minimum temperature yesterday: 91 °F (at 5:30 am)
Average temperature yesterday: 102 °F

High & Low Weather Summary for the Past Weeks

 TemperatureHumidityPressure
High111 °F (May 17, 2:30 pm)78% (May 12, 1:00 am)29.98 "Hg (May 12, 1:00 am)
Low75 °F (May 12, 12:30 am)9% (May 15, 5:00 pm)29.53 "Hg (May 22, 5:00 pm)
Average97 °F29%29.75 "Hg
* Reported May 8 12:30 am — May 23 1:00 am, Chittorgarh. Weather by CustomWeather, © 2024

Note: Actual official high and low records may vary slightly from our data, if they occured in-between our weather recording intervals... More about our weather records

Chittorgarh Weather History for the Previous 24 Hours

Scroll right to see more
 ConditionsComfort  
Time TempWeatherWind HumidityBarometerVisibility
1:00 am
Thu, May 23
93 °FPassing clouds.7 mph44%29.59 "Hg2 mi
12:30 am93 °FPassing clouds.10 mph47%29.59 "Hg2 mi
12:00 am95 °FPassing clouds.9 mph44%29.59 "Hg2 mi
11:30 pm
Wed, May 22
95 °FPassing clouds.8 mph44%29.62 "Hg2 mi
10:30 pm95 °FPassing clouds.7 mph44%29.62 "Hg2 mi
10:00 pm97 °FPassing clouds.9 mph39%29.62 "Hg2 mi
9:30 pm97 °FPassing clouds.9 mph39%29.59 "Hg2 mi
9:00 pm99 °FPassing clouds.12 mph35%29.59 "Hg2 mi
8:30 pm100 °FPassing clouds.13 mph29%29.56 "Hg2 mi
8:00 pm104 °FHaze.2 mph20%29.56 "Hg2 mi
7:30 pm108 °FHaze.5 mph15%29.56 "Hg2 mi
6:30 pm109 °FScattered clouds.5 mph13%29.53 "Hg3 mi
6:00 pm109 °FScattered clouds.5 mph13%29.53 "Hg3 mi
5:30 pm111 °FScattered clouds.7 mph11%29.53 "Hg3 mi
5:00 pm111 °FScattered clouds.6 mph11%29.53 "Hg3 mi
4:30 pm111 °FScattered clouds.6 mph12%29.56 "Hg3 mi
4:00 pm111 °FScattered clouds.8 mph12%29.56 "Hg3 mi
3:30 pm111 °FScattered clouds.2 mph11%29.59 "Hg3 mi
3:00 pm111 °FScattered clouds.9 mph12%29.59 "Hg3 mi
2:30 pm111 °FScattered clouds.5 mph12%29.59 "Hg3 mi
2:00 pm111 °FScattered clouds.5 mph12%29.62 "Hg4 mi
1:30 pm109 °FPassing clouds.6 mph13%29.62 "Hg4 mi
12:30 pm109 °FClear.5 mph16%29.65 "Hg4 mi
12:00 pm108 °FClear.3 mph18%29.68 "Hg4 mi
11:30 am108 °FHaze.2 mph20%29.68 "Hg3 mi
10:30 am104 °FHaze.3 mph23%29.68 "Hg3 mi
10:00 am104 °FHaze.6 mph26%29.68 "Hg2 mi
9:30 am102 °FHaze.3 mph27%29.71 "Hg2 mi
9:00 am102 °FHaze.3 mph29%29.71 "Hg2 mi
8:30 am100 °FHaze.5 mph31%29.71 "Hg2 mi
8:00 am97 °FPassing clouds.3 mph34%29.71 "Hg2 mi
7:30 am97 °FScattered clouds.2 mph34%29.68 "Hg2 mi
7:00 am93 °FScattered clouds.2 mph39%29.68 "Hg2 mi
6:30 am91 °FBroken clouds.1 mph38%29.68 "Hg2 mi
6:00 am91 °FPartly cloudy.2 mph38%29.68 "Hg2 mi
5:30 am91 °FPartly cloudy.5 mph38%29.65 "Hg2 mi
5:00 am93 °FPartly cloudy.2 mph36%29.65 "Hg2 mi
4:30 am95 °FPassing clouds.3 mph34%29.65 "Hg2 mi
4:00 am95 °FPassing clouds.2 mph34%29.65 "Hg2 mi
3:30 am95 °FPassing clouds.5 mph34%29.65 "Hg2 mi
3:00 am95 °FPassing clouds.5 mph34%29.65 "Hg2 mi
2:30 am97 °FPassing clouds.5 mph30%29.65 "Hg2 mi
2:00 am97 °FPassing clouds.5 mph30%29.65 "Hg2 mi
Weather by CustomWeather, © 2024

See weather overview